sensor_id;sensor_type;location;lat;lon;timestamp;P1;durP1;ratioP1;P2;durP2;ratioP2
5821;SDS011;2937;48.562;8.022;2023-04-03T00:04:44;8.33;;;4.33;;
5821;SDS011;2937;48.562;8.022;2023-04-03T00:09:37;7.37;;;4.60;;
5821;SDS011;2937;48.562;8.022;2023-04-03T00:14:31;5.13;;;3.83;;
5821;SDS011;2937;48.562;8.022;2023-04-03T00:19:23;5.70;;;4.47;;
5821;SDS011;2937;48.562;8.022;2023-04-03T00:24:16;5.30;;;4.70;;
5821;SDS011;2937;48.562;8.022;2023-04-03T00:29:09;5.50;;;4.40;;
5821;SDS011;2937;48.562;8.022;2023-04-03T00:34:03;5.63;;;4.70;;
5821;SDS011;2937;48.562;8.022;2023-04-03T00:38:56;4.53;;;4.00;;
5821;SDS011;2937;48.562;8.022;2023-04-03T00:43:48;5.80;;;4.20;;
5821;SDS011;2937;48.562;8.022;2023-04-03T00:48:41;4.73;;;4.23;;
5821;SDS011;2937;48.562;8.022;2023-04-03T00:53:37;5.13;;;4.40;;
5821;SDS011;2937;48.562;8.022;2023-04-03T00:58:32;5.57;;;4.47;;
5821;SDS011;2937;48.562;8.022;2023-04-03T01:03:25;4.57;;;4.13;;
5821;SDS011;2937;48.562;8.022;2023-04-03T01:08:18;4.77;;;3.93;;
5821;SDS011;2937;48.562;8.022;2023-04-03T01:13:22;5.13;;;4.63;;
5821;SDS011;2937;48.562;8.022;2023-04-03T01:18:15;4.93;;;4.30;;
5821;SDS011;2937;48.562;8.022;2023-04-03T01:23:12;6.40;;;4.97;;
5821;SDS011;2937;48.562;8.022;2023-04-03T01:28:09;6.00;;;4.43;;
5821;SDS011;2937;48.562;8.022;2023-04-03T01:33:04;5.27;;;4.40;;
5821;SDS011;2937;48.562;8.022;2023-04-03T01:37:57;5.57;;;4.70;;
5821;SDS011;2937;48.562;8.022;2023-04-03T01:42:50;5.30;;;4.33;;
5821;SDS011;2937;48.562;8.022;2023-04-03T01:47:43;6.83;;;4.20;;
5821;SDS011;2937;48.562;8.022;2023-04-03T01:52:37;10.03;;;4.30;;
5821;SDS011;2937;48.562;8.022;2023-04-03T01:57:30;6.20;;;4.03;;
5821;SDS011;2937;48.562;8.022;2023-04-03T02:02:23;4.73;;;4.20;;
5821;SDS011;2937;48.562;8.022;2023-04-03T02:07:16;5.70;;;4.10;;
5821;SDS011;2937;48.562;8.022;2023-04-03T02:12:10;5.07;;;4.10;;
5821;SDS011;2937;48.562;8.022;2023-04-03T02:17:02;4.73;;;4.10;;
5821;SDS011;2937;48.562;8.022;2023-04-03T02:21:59;6.37;;;3.97;;
5821;SDS011;2937;48.562;8.022;2023-04-03T02:26:52;5.20;;;3.97;;
5821;SDS011;2937;48.562;8.022;2023-04-03T02:31:46;6.27;;;4.13;;
5821;SDS011;2937;48.562;8.022;2023-04-03T02:36:39;4.20;;;3.70;;
5821;SDS011;2937;48.562;8.022;2023-04-03T02:41:34;5.63;;;3.77;;
5821;SDS011;2937;48.562;8.022;2023-04-03T02:46:32;5.77;;;4.40;;
5821;SDS011;2937;48.562;8.022;2023-04-03T02:51:27;5.67;;;4.70;;
5821;SDS011;2937;48.562;8.022;2023-04-03T02:56:20;5.10;;;4.03;;
5821;SDS011;2937;48.562;8.022;2023-04-03T03:01:12;6.20;;;3.90;;
5821;SDS011;2937;48.562;8.022;2023-04-03T03:06:06;5.07;;;4.53;;
5821;SDS011;2937;48.562;8.022;2023-04-03T03:11:00;4.60;;;3.93;;
5821;SDS011;2937;48.562;8.022;2023-04-03T03:15:52;6.63;;;4.33;;
5821;SDS011;2937;48.562;8.022;2023-04-03T03:20:45;5.43;;;4.83;;
5821;SDS011;2937;48.562;8.022;2023-04-03T03:25:38;5.83;;;4.70;;
5821;SDS011;2937;48.562;8.022;2023-04-03T03:30:33;6.13;;;4.83;;
5821;SDS011;2937;48.562;8.022;2023-04-03T03:35:26;7.07;;;4.77;;
5821;SDS011;2937;48.562;8.022;2023-04-03T03:40:18;6.50;;;4.93;;
5821;SDS011;2937;48.562;8.022;2023-04-03T03:45:11;5.17;;;4.63;;
5821;SDS011;2937;48.562;8.022;2023-04-03T03:50:08;6.33;;;4.73;;
5821;SDS011;2937;48.562;8.022;2023-04-03T03:55:01;6.80;;;4.73;;
5821;SDS011;2937;48.562;8.022;2023-04-03T03:59:54;6.20;;;5.10;;
5821;SDS011;2937;48.562;8.022;2023-04-03T04:04:47;6.23;;;5.07;;
5821;SDS011;2937;48.562;8.022;2023-04-03T04:09:42;6.60;;;5.13;;
5821;SDS011;2937;48.562;8.022;2023-04-03T04:14:34;6.50;;;5.23;;
5821;SDS011;2937;48.562;8.022;2023-04-03T04:19:28;7.07;;;4.60;;
5821;SDS011;2937;48.562;8.022;2023-04-03T04:24:21;6.70;;;4.87;;
5821;SDS011;2937;48.562;8.022;2023-04-03T04:29:18;8.23;;;5.40;;
5821;SDS011;2937;48.562;8.022;2023-04-03T04:34:13;7.00;;;5.23;;
5821;SDS011;2937;48.562;8.022;2023-04-03T04:39:06;7.03;;;5.50;;
5821;SDS011;2937;48.562;8.022;2023-04-03T04:43:59;6.50;;;5.27;;
5821;SDS011;2937;48.562;8.022;2023-04-03T04:48:54;7.33;;;5.30;;
5821;SDS011;2937;48.562;8.022;2023-04-03T04:53:47;8.40;;;5.77;;
5821;SDS011;2937;48.562;8.022;2023-04-03T04:58:42;7.97;;;5.03;;
5821;SDS011;2937;48.562;8.022;2023-04-03T05:03:35;7.37;;;5.20;;
5821;SDS011;2937;48.562;8.022;2023-04-03T05:08:30;9.90;;;5.17;;
5821;SDS011;2937;48.562;8.022;2023-04-03T05:13:23;6.77;;;5.70;;
5821;SDS011;2937;48.562;8.022;2023-04-03T05:18:17;5.27;;;4.77;;
5821;SDS011;2937;48.562;8.022;2023-04-03T05:23:10;10.50;;;7.03;;
5821;SDS011;2937;48.562;8.022;2023-04-03T05:28:05;32.50;;;16.13;;
5821;SDS011;2937;48.562;8.022;2023-04-03T05:32:59;7.27;;;5.57;;
5821;SDS011;2937;48.562;8.022;2023-04-03T05:38:01;8.53;;;6.47;;
5821;SDS011;2937;48.562;8.022;2023-04-03T05:42:55;6.60;;;5.90;;
5821;SDS011;2937;48.562;8.022;2023-04-03T05:47:52;5.70;;;5.10;;
5821;SDS011;2937;48.562;8.022;2023-04-03T05:52:45;6.50;;;4.80;;
5821;SDS011;2937;48.562;8.022;2023-04-03T05:57:40;8.70;;;5.90;;
5821;SDS011;2937;48.562;8.022;2023-04-03T06:02:33;8.30;;;5.87;;
5821;SDS011;2937;48.562;8.022;2023-04-03T06:07:28;7.30;;;5.20;;
5821;SDS011;2937;48.562;8.022;2023-04-03T06:12:21;5.40;;;4.30;;
5821;SDS011;2937;48.562;8.022;2023-04-03T06:17:14;5.50;;;4.50;;
5821;SDS011;2937;48.562;8.022;2023-04-03T06:22:07;5.63;;;4.70;;
5821;SDS011;2937;48.562;8.022;2023-04-03T06:27:01;6.03;;;4.77;;
5821;SDS011;2937;48.562;8.022;2023-04-03T06:31:54;4.60;;;4.20;;
5821;SDS011;2937;48.562;8.022;2023-04-03T06:36:46;4.67;;;3.80;;
5821;SDS011;2937;48.562;8.022;2023-04-03T06:41:40;7.37;;;4.10;;
5821;SDS011;2937;48.562;8.022;2023-04-03T06:46:34;5.27;;;4.70;;
5821;SDS011;2937;48.562;8.022;2023-04-03T06:51:27;6.90;;;4.70;;
5821;SDS011;2937;48.562;8.022;2023-04-03T06:56:21;5.50;;;4.63;;
5821;SDS011;2937;48.562;8.022;2023-04-03T07:01:15;5.70;;;4.67;;
5821;SDS011;2937;48.562;8.022;2023-04-03T07:06:10;6.60;;;4.70;;
5821;SDS011;2937;48.562;8.022;2023-04-03T07:11:03;4.43;;;4.03;;
5821;SDS011;2937;48.562;8.022;2023-04-03T07:15:56;5.57;;;4.73;;
5821;SDS011;2937;48.562;8.022;2023-04-03T07:20:49;4.47;;;4.03;;
5821;SDS011;2937;48.562;8.022;2023-04-03T07:25:44;5.60;;;4.50;;
5821;SDS011;2937;48.562;8.022;2023-04-03T07:30:41;5.33;;;4.13;;
5821;SDS011;2937;48.562;8.022;2023-04-03T07:35:34;6.77;;;4.67;;
5821;SDS011;2937;48.562;8.022;2023-04-03T07:40:28;5.60;;;3.63;;
5821;SDS011;2937;48.562;8.022;2023-04-03T07:45:22;3.73;;;3.40;;
5821;SDS011;2937;48.562;8.022;2023-04-03T07:50:15;3.27;;;2.80;;
5821;SDS011;2937;48.562;8.022;2023-04-03T07:55:08;3.60;;;3.30;;
5821;SDS011;2937;48.562;8.022;2023-04-03T08:00:00;4.47;;;2.93;;
5821;SDS011;2937;48.562;8.022;2023-04-03T08:05:04;3.63;;;3.13;;
5821;SDS011;2937;48.562;8.022;2023-04-03T08:09:57;4.60;;;3.73;;
5821;SDS011;2937;48.562;8.022;2023-04-03T08:14:49;4.00;;;3.57;;
5821;SDS011;2937;48.562;8.022;2023-04-03T08:19:42;4.43;;;3.03;;
5821;SDS011;2937;48.562;8.022;2023-04-03T08:24:36;3.50;;;3.07;;
5821;SDS011;2937;48.562;8.022;2023-04-03T08:29:33;5.03;;;3.00;;
5821;SDS011;2937;48.562;8.022;2023-04-03T08:34:28;2.90;;;2.60;;
5821;SDS011;2937;48.562;8.022;2023-04-03T08:39:21;3.20;;;2.90;;
5821;SDS011;2937;48.562;8.022;2023-04-03T08:44:17;4.13;;;3.73;;
5821;SDS011;2937;48.562;8.022;2023-04-03T08:49:11;3.03;;;2.73;;
5821;SDS011;2937;48.562;8.022;2023-04-03T08:54:14;3.80;;;3.13;;
5821;SDS011;2937;48.562;8.022;2023-04-03T08:59:10;2.70;;;2.03;;
5821;SDS011;2937;48.562;8.022;2023-04-03T09:04:09;3.10;;;2.80;;
5821;SDS011;2937;48.562;8.022;2023-04-03T09:09:07;4.20;;;2.70;;
5821;SDS011;2937;48.562;8.022;2023-04-03T09:14:02;3.87;;;2.97;;
5821;SDS011;2937;48.562;8.022;2023-04-03T09:18:57;3.33;;;3.00;;
5821;SDS011;2937;48.562;8.022;2023-04-03T09:23:55;4.20;;;3.00;;
5821;SDS011;2937;48.562;8.022;2023-04-03T09:28:48;3.27;;;2.60;;
5821;SDS011;2937;48.562;8.022;2023-04-03T09:33:41;3.57;;;3.10;;
5821;SDS011;2937;48.562;8.022;2023-04-03T09:38:34;3.43;;;2.40;;
5821;SDS011;2937;48.562;8.022;2023-04-03T09:43:30;3.73;;;3.07;;
5821;SDS011;2937;48.562;8.022;2023-04-03T09:48:23;5.57;;;3.30;;
5821;SDS011;2937;48.562;8.022;2023-04-03T09:53:25;6.77;;;3.67;;
5821;SDS011;2937;48.562;8.022;2023-04-03T09:58:26;3.47;;;3.17;;
5821;SDS011;2937;48.562;8.022;2023-04-03T10:03:41;5.37;;;3.17;;
5821;SDS011;2937;48.562;8.022;2023-04-03T10:08:37;3.53;;;3.23;;
5821;SDS011;2937;48.562;8.022;2023-04-03T10:13:31;4.10;;;3.30;;
5821;SDS011;2937;48.562;8.022;2023-04-03T10:18:33;4.87;;;3.37;;
5821;SDS011;2937;48.562;8.022;2023-04-03T10:23:33;3.13;;;2.83;;
5821;SDS011;2937;48.562;8.022;2023-04-03T10:28:31;3.70;;;3.00;;
5821;SDS011;2937;48.562;8.022;2023-04-03T10:33:31;2.63;;;2.43;;
5821;SDS011;2937;48.562;8.022;2023-04-03T10:38:30;3.30;;;2.83;;
5821;SDS011;2937;48.562;8.022;2023-04-03T10:43:28;3.50;;;2.87;;
5821;SDS011;2937;48.562;8.022;2023-04-03T10:48:28;4.00;;;3.60;;
5821;SDS011;2937;48.562;8.022;2023-04-03T10:53:24;4.77;;;3.20;;
5821;SDS011;2937;48.562;8.022;2023-04-03T10:58:25;4.00;;;3.60;;
5821;SDS011;2937;48.562;8.022;2023-04-03T11:03:24;5.03;;;3.27;;
5821;SDS011;2937;48.562;8.022;2023-04-03T11:08:24;3.40;;;3.10;;
5821;SDS011;2937;48.562;8.022;2023-04-03T11:13:19;4.67;;;3.90;;
5821;SDS011;2937;48.562;8.022;2023-04-03T11:18:15;5.03;;;3.80;;
5821;SDS011;2937;48.562;8.022;2023-04-03T11:23:12;5.50;;;3.07;;
5821;SDS011;2937;48.562;8.022;2023-04-03T11:28:11;4.07;;;2.53;;
5821;SDS011;2937;48.562;8.022;2023-04-03T11:33:16;4.30;;;3.23;;
5821;SDS011;2937;48.562;8.022;2023-04-03T11:38:17;4.43;;;3.53;;
5821;SDS011;2937;48.562;8.022;2023-04-03T11:43:19;5.33;;;3.77;;
5821;SDS011;2937;48.562;8.022;2023-04-03T11:53:31;3.67;;;2.93;;
5821;SDS011;2937;48.562;8.022;2023-04-03T11:58:24;5.07;;;2.73;;
5821;SDS011;2937;48.562;8.022;2023-04-03T12:03:34;4.63;;;3.20;;
5821;SDS011;2937;48.562;8.022;2023-04-03T12:08:48;4.23;;;3.10;;
5821;SDS011;2937;48.562;8.022;2023-04-03T12:18:55;3.60;;;3.30;;
5821;SDS011;2937;48.562;8.022;2023-04-03T12:23:58;4.50;;;3.63;;
5821;SDS011;2937;48.562;8.022;2023-04-03T12:28:53;5.30;;;3.10;;
5821;SDS011;2937;48.562;8.022;2023-04-03T12:33:59;4.60;;;3.37;;
5821;SDS011;2937;48.562;8.022;2023-04-03T12:39:11;4.77;;;3.50;;
5821;SDS011;2937;48.562;8.022;2023-04-03T12:44:27;4.17;;;3.33;;
5821;SDS011;2937;48.562;8.022;2023-04-03T12:49:28;3.13;;;2.83;;
5821;SDS011;2937;48.562;8.022;2023-04-03T12:54:26;3.93;;;3.30;;
5821;SDS011;2937;48.562;8.022;2023-04-03T12:59:20;3.90;;;3.17;;
5821;SDS011;2937;48.562;8.022;2023-04-03T13:04:12;9.40;;;3.17;;
5821;SDS011;2937;48.562;8.022;2023-04-03T13:09:05;4.30;;;2.90;;
5821;SDS011;2937;48.562;8.022;2023-04-03T13:14:00;3.70;;;2.73;;
5821;SDS011;2937;48.562;8.022;2023-04-03T13:18:53;4.27;;;3.30;;
5821;SDS011;2937;48.562;8.022;2023-04-03T13:23:47;4.80;;;3.40;;
5821;SDS011;2937;48.562;8.022;2023-04-03T13:28:47;4.53;;;3.07;;
5821;SDS011;2937;48.562;8.022;2023-04-03T13:33:51;5.63;;;2.70;;
5821;SDS011;2937;48.562;8.022;2023-04-03T13:38:44;2.83;;;2.33;;
5821;SDS011;2937;48.562;8.022;2023-04-03T13:43:37;2.93;;;2.63;;
5821;SDS011;2937;48.562;8.022;2023-04-03T13:48:36;3.30;;;3.00;;
5821;SDS011;2937;48.562;8.022;2023-04-03T13:53:30;3.83;;;3.03;;
5821;SDS011;2937;48.562;8.022;2023-04-03T13:58:24;3.70;;;2.67;;
5821;SDS011;2937;48.562;8.022;2023-04-03T14:03:19;3.50;;;2.70;;
5821;SDS011;2937;48.562;8.022;2023-04-03T14:08:12;4.87;;;3.07;;
5821;SDS011;2937;48.562;8.022;2023-04-03T14:13:08;2.67;;;2.20;;
5821;SDS011;2937;48.562;8.022;2023-04-03T14:18:01;4.30;;;3.03;;
5821;SDS011;2937;48.562;8.022;2023-04-03T14:22:56;4.00;;;2.97;;
5821;SDS011;2937;48.562;8.022;2023-04-03T14:27:50;3.17;;;2.87;;
5821;SDS011;2937;48.562;8.022;2023-04-03T14:32:45;5.53;;;3.40;;
5821;SDS011;2937;48.562;8.022;2023-04-03T14:37:38;4.43;;;3.30;;
5821;SDS011;2937;48.562;8.022;2023-04-03T14:42:32;4.23;;;2.77;;
5821;SDS011;2937;48.562;8.022;2023-04-03T14:47:25;2.80;;;2.23;;
5821;SDS011;2937;48.562;8.022;2023-04-03T14:52:25;4.20;;;3.03;;
5821;SDS011;2937;48.562;8.022;2023-04-03T14:57:18;4.90;;;3.00;;
5821;SDS011;2937;48.562;8.022;2023-04-03T15:02:18;4.03;;;3.17;;
5821;SDS011;2937;48.562;8.022;2023-04-03T15:07:15;5.00;;;2.70;;
5821;SDS011;2937;48.562;8.022;2023-04-03T15:12:09;2.87;;;2.40;;
5821;SDS011;2937;48.562;8.022;2023-04-03T15:17:01;5.80;;;2.93;;
5821;SDS011;2937;48.562;8.022;2023-04-03T15:21:54;7.43;;;2.23;;
5821;SDS011;2937;48.562;8.022;2023-04-03T15:26:47;3.80;;;2.63;;
5821;SDS011;2937;48.562;8.022;2023-04-03T15:31:41;4.00;;;2.50;;
5821;SDS011;2937;48.562;8.022;2023-04-03T15:36:33;2.93;;;2.57;;
5821;SDS011;2937;48.562;8.022;2023-04-03T15:41:26;3.93;;;3.20;;
5821;SDS011;2937;48.562;8.022;2023-04-03T15:46:19;3.90;;;2.80;;
5821;SDS011;2937;48.562;8.022;2023-04-03T15:51:13;3.80;;;2.93;;
5821;SDS011;2937;48.562;8.022;2023-04-03T15:56:05;6.90;;;3.47;;
5821;SDS011;2937;48.562;8.022;2023-04-03T16:00:59;4.97;;;3.30;;
5821;SDS011;2937;48.562;8.022;2023-04-03T16:05:53;4.37;;;3.30;;
5821;SDS011;2937;48.562;8.022;2023-04-03T16:10:48;3.30;;;2.57;;
5821;SDS011;2937;48.562;8.022;2023-04-03T16:15:41;3.20;;;2.87;;
5821;SDS011;2937;48.562;8.022;2023-04-03T16:20:34;3.30;;;2.70;;
5821;SDS011;2937;48.562;8.022;2023-04-03T16:25:27;4.83;;;4.03;;
5821;SDS011;2937;48.562;8.022;2023-04-03T16:30:23;3.03;;;2.57;;
5821;SDS011;2937;48.562;8.022;2023-04-03T16:35:16;4.20;;;2.90;;
5821;SDS011;2937;48.562;8.022;2023-04-03T16:40:09;4.40;;;3.13;;
5821;SDS011;2937;48.562;8.022;2023-04-03T16:45:03;4.83;;;3.70;;
5821;SDS011;2937;48.562;8.022;2023-04-03T16:49:58;3.27;;;3.03;;
5821;SDS011;2937;48.562;8.022;2023-04-03T16:54:51;2.40;;;2.20;;
5821;SDS011;2937;48.562;8.022;2023-04-03T16:59:47;5.10;;;3.93;;
5821;SDS011;2937;48.562;8.022;2023-04-03T17:04:39;3.97;;;2.70;;
5821;SDS011;2937;48.562;8.022;2023-04-03T17:09:33;2.70;;;2.37;;
5821;SDS011;2937;48.562;8.022;2023-04-03T17:14:26;10.03;;;3.50;;
5821;SDS011;2937;48.562;8.022;2023-04-03T17:19:18;3.73;;;3.40;;
5821;SDS011;2937;48.562;8.022;2023-04-03T17:24:12;3.70;;;3.30;;
5821;SDS011;2937;48.562;8.022;2023-04-03T17:29:08;5.37;;;4.00;;
5821;SDS011;2937;48.562;8.022;2023-04-03T17:34:21;5.03;;;3.70;;
5821;SDS011;2937;48.562;8.022;2023-04-03T17:39:34;6.87;;;5.30;;
5821;SDS011;2937;48.562;8.022;2023-04-03T17:44:48;4.63;;;3.20;;
5821;SDS011;2937;48.562;8.022;2023-04-03T17:50:00;10.87;;;6.10;;
5821;SDS011;2937;48.562;8.022;2023-04-03T17:55:13;10.77;;;3.97;;
5821;SDS011;2937;48.562;8.022;2023-04-03T18:00:29;6.10;;;4.10;;
5821;SDS011;2937;48.562;8.022;2023-04-03T18:05:42;6.40;;;3.23;;
5821;SDS011;2937;48.562;8.022;2023-04-03T18:10:55;4.83;;;3.43;;
5821;SDS011;2937;48.562;8.022;2023-04-03T18:16:09;4.03;;;3.60;;
5821;SDS011;2937;48.562;8.022;2023-04-03T18:21:08;6.93;;;5.40;;
5821;SDS011;2937;48.562;8.022;2023-04-03T18:26:22;9.80;;;5.47;;
5821;SDS011;2937;48.562;8.022;2023-04-03T18:31:38;4.33;;;3.33;;
5821;SDS011;2937;48.562;8.022;2023-04-03T18:36:52;8.53;;;4.67;;
5821;SDS011;2937;48.562;8.022;2023-04-03T18:42:05;3.93;;;3.43;;
5821;SDS011;2937;48.562;8.022;2023-04-03T18:47:20;13.73;;;6.07;;
5821;SDS011;2937;48.562;8.022;2023-04-03T18:52:33;4.60;;;3.57;;
5821;SDS011;2937;48.562;8.022;2023-04-03T18:57:45;6.70;;;4.30;;
5821;SDS011;2937;48.562;8.022;2023-04-03T19:02:59;6.53;;;5.10;;
5821;SDS011;2937;48.562;8.022;2023-04-03T19:08:12;4.73;;;4.07;;
5821;SDS011;2937;48.562;8.022;2023-04-03T19:13:25;6.03;;;4.23;;
5821;SDS011;2937;48.562;8.022;2023-04-03T19:18:39;8.23;;;5.07;;
5821;SDS011;2937;48.562;8.022;2023-04-03T19:23:52;7.00;;;5.00;;
5821;SDS011;2937;48.562;8.022;2023-04-03T19:29:09;9.47;;;4.40;;
5821;SDS011;2937;48.562;8.022;2023-04-03T19:34:24;10.90;;;6.23;;
5821;SDS011;2937;48.562;8.022;2023-04-03T19:39:36;9.90;;;6.20;;
5821;SDS011;2937;48.562;8.022;2023-04-03T19:44:49;12.30;;;8.00;;
5821;SDS011;2937;48.562;8.022;2023-04-03T19:50:04;11.53;;;7.03;;
5821;SDS011;2937;48.562;8.022;2023-04-03T19:55:17;9.63;;;6.70;;
5821;SDS011;2937;48.562;8.022;2023-04-03T20:00:30;8.57;;;5.63;;
5821;SDS011;2937;48.562;8.022;2023-04-03T20:05:45;10.90;;;7.80;;
5821;SDS011;2937;48.562;8.022;2023-04-03T20:10:58;12.20;;;7.00;;
5821;SDS011;2937;48.562;8.022;2023-04-03T20:16:12;15.17;;;8.80;;
5821;SDS011;2937;48.562;8.022;2023-04-03T20:21:29;46.37;;;16.07;;
5821;SDS011;2937;48.562;8.022;2023-04-03T20:26:42;33.13;;;13.40;;
5821;SDS011;2937;48.562;8.022;2023-04-03T20:31:56;19.83;;;9.73;;
5821;SDS011;2937;48.562;8.022;2023-04-03T20:37:10;7.43;;;5.00;;
5821;SDS011;2937;48.562;8.022;2023-04-03T20:42:24;6.90;;;3.97;;
5821;SDS011;2937;48.562;8.022;2023-04-03T20:47:37;6.20;;;4.63;;
5821;SDS011;2937;48.562;8.022;2023-04-03T20:52:51;5.20;;;3.73;;
5821;SDS011;2937;48.562;8.022;2023-04-03T20:58:04;5.47;;;3.40;;
5821;SDS011;2937;48.562;8.022;2023-04-03T21:03:17;6.63;;;4.33;;
5821;SDS011;2937;48.562;8.022;2023-04-03T21:19:40;7.90;;;4.33;;
5821;SDS011;2937;48.562;8.022;2023-04-03T21:24:57;10.40;;;4.20;;
5821;SDS011;2937;48.562;8.022;2023-04-03T21:30:10;7.67;;;4.10;;
5821;SDS011;2937;48.562;8.022;2023-04-03T21:35:23;6.90;;;4.43;;
5821;SDS011;2937;48.562;8.022;2023-04-03T21:40:36;4.40;;;3.47;;
5821;SDS011;2937;48.562;8.022;2023-04-03T21:45:51;5.67;;;4.30;;
5821;SDS011;2937;48.562;8.022;2023-04-03T21:51:05;7.67;;;4.20;;
5821;SDS011;2937;48.562;8.022;2023-04-03T21:56:18;6.00;;;3.30;;
5821;SDS011;2937;48.562;8.022;2023-04-03T22:01:32;5.73;;;3.70;;
5821;SDS011;2937;48.562;8.022;2023-04-03T22:06:46;4.50;;;3.23;;
5821;SDS011;2937;48.562;8.022;2023-04-03T22:11:59;3.90;;;3.07;;
5821;SDS011;2937;48.562;8.022;2023-04-03T22:17:13;6.03;;;3.63;;
5821;SDS011;2937;48.562;8.022;2023-04-03T22:22:26;4.10;;;3.03;;
5821;SDS011;2937;48.562;8.022;2023-04-03T22:27:39;4.40;;;3.30;;
5821;SDS011;2937;48.562;8.022;2023-04-03T22:32:52;5.57;;;3.23;;
5821;SDS011;2937;48.562;8.022;2023-04-03T22:37:46;5.90;;;3.50;;
5821;SDS011;2937;48.562;8.022;2023-04-03T22:42:38;4.77;;;3.40;;
5821;SDS011;2937;48.562;8.022;2023-04-03T22:47:32;6.10;;;3.80;;
5821;SDS011;2937;48.562;8.022;2023-04-03T22:52:25;5.73;;;3.77;;
5821;SDS011;2937;48.562;8.022;2023-04-03T22:57:19;4.87;;;3.90;;
5821;SDS011;2937;48.562;8.022;2023-04-03T23:02:12;4.33;;;3.30;;
5821;SDS011;2937;48.562;8.022;2023-04-03T23:07:04;6.10;;;3.80;;
5821;SDS011;2937;48.562;8.022;2023-04-03T23:11:57;6.33;;;3.70;;
5821;SDS011;2937;48.562;8.022;2023-04-03T23:16:51;7.33;;;3.40;;
5821;SDS011;2937;48.562;8.022;2023-04-03T23:21:43;3.63;;;3.17;;
5821;SDS011;2937;48.562;8.022;2023-04-03T23:26:37;3.93;;;2.97;;
5821;SDS011;2937;48.562;8.022;2023-04-03T23:31:29;4.23;;;3.23;;
5821;SDS011;2937;48.562;8.022;2023-04-03T23:36:23;5.67;;;3.60;;
5821;SDS011;2937;48.562;8.022;2023-04-03T23:41:16;3.40;;;2.60;;
5821;SDS011;2937;48.562;8.022;2023-04-03T23:46:08;3.57;;;2.67;;
5821;SDS011;2937;48.562;8.022;2023-04-03T23:51:01;3.93;;;3.20;;
5821;SDS011;2937;48.562;8.022;2023-04-03T23:55:55;3.40;;;2.97;;
